Time;durP1;ratioP1;P1;durP2;ratioP2;P2;SDS_P1;SDS_P2;PMS_P1;PMS_P2;Temp;Humidity;BMP_temperature;BMP_pressure;BME280_temperature;BME280_humidity;BME280_pressure;Samples;Min_cycle;Max_cycle;Signal;HPM_P1;HPM_P2
2023/12/22 00:00:09;;;;;;;3.10;1.67;;;6.70;99.90;;;7.13;75.33;96312.28;5033927;28;20053;-62
2023/12/22 00:02:37;;;;;;;4.73;1.67;;;6.70;99.90;;;7.12;75.74;96292.94;5033621;28;20045;-63
2023/12/22 00:05:06;;;;;;;3.33;1.07;;;6.70;99.90;;;7.34;75.17;96290.50;5033406;28;20046;-63
2023/12/22 00:07:33;;;;;;;4.60;1.60;;;6.80;99.90;;;7.40;75.58;96297.75;5015449;28;20493;-63
2023/12/22 00:10:01;;;;;;;4.67;1.93;;;6.80;99.90;;;7.45;76.22;96298.06;5032309;28;20497;-63
2023/12/22 00:12:29;;;;;;;3.17;1.80;;;6.90;99.90;;;7.45;76.58;96288.28;5033543;28;20045;-64
2023/12/22 00:14:57;;;;;;;7.83;1.70;;;7.00;99.90;;;7.53;76.57;96287.41;5033538;28;20053;-63
2023/12/22 00:17:25;;;;;;;4.87;1.90;;;7.10;99.90;;;7.68;76.98;96292.78;5033092;28;20052;-63
2023/12/22 00:19:53;;;;;;;3.47;1.47;;;7.20;99.90;;;7.79;76.15;96302.97;5032349;28;20044;-62
2023/12/22 00:22:21;;;;;;;2.90;2.23;;;7.20;99.90;;;7.69;76.49;96295.22;5032164;28;20045;-63
2023/12/22 00:24:49;;;;;;;3.37;1.23;;;7.10;99.90;;;7.62;75.76;96304.91;5024094;28;20037;-63
2023/12/22 00:27:17;;;;;;;1.60;1.20;;;7.00;99.90;;;7.39;75.56;96354.38;5032365;28;20041;-62
2023/12/22 00:29:44;;;;;;;7.57;1.30;;;6.90;99.90;;;7.25;76.08;96383.22;5033205;28;20043;-62
2023/12/22 00:32:12;;;;;;;5.10;1.50;;;6.60;99.90;;;6.99;76.26;96370.22;5032985;28;20055;-59
2023/12/22 00:34:40;;;;;;;3.47;1.70;;;6.40;99.90;;;6.80;79.06;96379.34;5031592;28;20453;-60
2023/12/22 00:37:08;;;;;;;9.07;2.07;;;6.30;99.90;;;6.78;79.70;96367.28;5032200;28;20057;-61
2023/12/22 00:39:36;;;;;;;3.77;1.60;;;6.40;99.90;;;6.83;79.97;96389.59;5031948;28;20057;-60
2023/12/22 00:42:04;;;;;;;5.70;1.77;;;6.50;99.90;;;6.88;79.42;96400.50;5031796;28;20412;-60
2023/12/22 00:44:32;;;;;;;7.17;2.20;;;6.50;99.90;;;7.06;79.05;96394.19;5032670;28;20044;-61
2023/12/22 00:47:00;;;;;;;4.67;1.90;;;6.60;99.90;;;7.20;79.24;96390.81;5033044;28;20052;-60
2023/12/22 00:49:27;;;;;;;6.77;2.13;;;6.70;99.90;;;7.15;79.12;96373.81;5031375;28;20421;-61
2023/12/22 00:51:55;;;;;;;3.83;1.90;;;6.60;99.90;;;7.17;79.11;96372.63;5029150;28;20068;-60
2023/12/22 00:54:24;;;;;;;7.60;1.63;;;6.60;99.90;;;6.99;79.41;96386.09;5032904;28;20505;-61
2023/12/22 00:56:52;;;;;;;4.37;1.30;;;6.50;99.90;;;6.98;80.09;96379.16;5025236;28;20049;-60
2023/12/22 00:59:20;;;;;;;7.20;1.67;;;6.60;99.90;;;7.16;79.35;96372.81;5033011;28;20408;-60
2023/12/22 01:01:48;;;;;;;6.67;1.63;;;6.60;99.90;;;7.15;79.25;96365.84;5032499;28;20425;-60
2023/12/22 01:04:16;;;;;;;3.17;1.50;;;6.60;99.90;;;7.27;78.90;96386.50;5032754;28;20072;-60
2023/12/22 01:06:44;;;;;;;3.37;1.63;;;6.70;99.90;;;7.30;78.59;96364.16;5032811;28;20052;-60
2023/12/22 01:09:14;;;;;;;4.30;2.50;;;6.70;99.90;;;7.32;78.39;96354.22;5032728;28;20057;-61
2023/12/22 01:11:42;;;;;;;4.00;1.90;;;6.70;99.90;;;7.42;78.41;96356.66;5031435;28;20041;-62
2023/12/22 01:14:10;;;;;;;6.07;2.20;;;6.70;99.90;;;7.37;78.12;96349.22;5032528;28;20046;-61
2023/12/22 01:16:39;;;;;;;5.70;1.63;;;6.70;99.90;;;7.48;77.66;96340.06;5031424;28;20041;-61
2023/12/22 01:19:07;;;;;;;8.27;2.27;;;6.70;99.90;;;7.61;77.71;96342.97;5032087;28;20588;-61
2023/12/22 01:21:35;;;;;;;5.87;2.30;;;6.80;99.90;;;7.70;77.32;96354.34;5031137;28;20517;-61
2023/12/22 01:24:04;;;;;;;2.43;1.30;;;6.80;99.90;;;7.58;76.99;96363.69;5032031;28;20041;-61
2023/12/22 01:26:31;;;;;;;8.67;2.43;;;6.80;99.90;;;7.55;76.55;96369.34;5030994;28;20046;-60
2023/12/22 01:28:59;;;;;;;4.57;1.83;;;6.80;99.90;;;7.56;77.06;96349.78;5031916;28;20049;-62
2023/12/22 01:31:27;;;;;;;4.13;1.67;;;6.70;99.90;;;7.49;76.68;96355.78;5030566;28;20056;-62
2023/12/22 01:33:55;;;;;;;6.57;2.00;;;6.70;99.90;;;7.47;76.42;96363.06;5020241;28;20045;-61
2023/12/22 01:36:23;;;;;;;3.77;1.43;;;6.70;99.90;;;7.43;76.22;96355.66;5027779;28;20054;-62
2023/12/22 01:38:51;;;;;;;6.30;1.30;;;6.60;99.90;;;7.44;75.95;96359.94;5030519;28;20494;-61
2023/12/22 01:41:18;;;;;;;4.50;1.90;;;6.60;99.90;;;7.54;75.87;96379.13;5031889;28;20050;-61
2023/12/22 01:43:46;;;;;;;3.43;1.80;;;6.60;99.90;;;7.55;74.90;96362.22;5031731;28;20064;-61
2023/12/22 01:46:14;;;;;;;3.97;1.60;;;6.60;99.90;;;7.49;73.99;96373.50;5031944;28;20033;-61
2023/12/22 01:48:43;;;;;;;2.30;0.90;;;6.60;99.90;;;7.28;72.81;96430.50;5030214;28;20053;-60
2023/12/22 01:51:11;;;;;;;2.73;2.00;;;6.50;99.90;;;7.28;72.94;96390.78;5031647;28;20390;-61
2023/12/22 01:53:39;;;;;;;1.70;1.20;;;6.50;99.90;;;7.20;72.64;96387.34;5029791;28;20413;-61
2023/12/22 01:56:07;;;;;;;1.90;0.90;;;6.40;99.90;;;7.17;72.58;96398.28;5032143;28;20061;-61
2023/12/22 01:58:37;;;;;;;2.57;1.13;;;6.40;99.90;;;7.22;72.13;96399.41;5031117;28;20046;-61
2023/12/22 02:01:17;;;;;;;1.37;0.67;;;6.40;99.90;;;7.27;72.25;96405.03;5030682;28;20045;-61
2023/12/22 02:03:46;;;;;;;2.13;0.80;;;6.40;99.90;;;7.17;71.33;96396.44;5030074;28;20512;-61
2023/12/22 02:06:16;;;;;;;1.50;0.87;;;6.40;97.40;;;7.28;71.35;96382.84;5030382;28;20493;-61
2023/12/22 02:08:48;;;;;;;1.67;0.60;;;6.50;99.90;;;7.25;71.02;96380.56;5013176;28;20052;-61
2023/12/22 02:11:16;;;;;;;3.40;1.67;;;6.40;98.30;;;7.31;71.31;96387.00;5031482;28;20037;-61
2023/12/22 02:13:45;;;;;;;3.53;1.03;;;6.40;99.90;;;7.35;71.09;96390.94;5030074;28;20072;-60
2023/12/22 02:16:25;;;;;;;3.50;1.13;;;6.40;99.10;;;7.30;70.44;96396.72;5030363;28;20670;-62
2023/12/22 02:18:56;;;;;;;1.67;0.70;;;6.40;98.00;;;7.43;70.06;96393.56;5030989;28;20819;-60
2023/12/22 02:21:24;;;;;;;2.07;0.73;;;6.50;97.40;;;7.37;70.64;96398.72;5030023;28;20046;-61
2023/12/22 02:23:52;;;;;;;1.27;1.17;;;6.50;97.60;;;7.41;70.70;96422.03;5031061;28;20049;-61
2023/12/22 02:26:36;;;;;;;1.40;0.70;;;6.60;97.60;;;7.40;70.64;96408.94;5030891;28;20481;-61
2023/12/22 02:29:04;;;;;;;;;;;6.60;98.40;;;7.39;70.22;96408.13;5022651;28;20045;-61
2023/12/22 02:31:44;;;;;;;1.60;0.90;;;6.60;96.70;;;7.54;70.04;96410.06;5030846;28;19943;-60
2023/12/22 02:34:18;;;;;;;2.93;0.93;;;6.60;97.20;;;7.64;69.71;96416.00;5023666;28;20052;-60
2023/12/22 02:36:49;;;;;;;2.75;0.90;;;6.70;95.60;;;7.64;69.84;96405.38;5029977;28;20065;-61
2023/12/22 02:39:18;;;;;;;2.83;0.90;;;6.70;95.70;;;7.77;69.71;96405.63;5029593;28;20049;-60
2023/12/22 02:41:46;;;;;;;2.53;1.17;;;6.70;97.70;;;7.87;69.63;96393.00;5029609;28;20520;-60
2023/12/22 02:44:14;;;;;;;3.80;1.80;;;6.80;97.90;;;7.95;69.50;96378.88;5030150;28;20049;-60
2023/12/22 02:46:43;;;;;;;1.23;1.13;;;6.80;97.00;;;7.94;69.29;96400.25;5030954;28;20045;-60
2023/12/22 02:49:13;;;;;;;2.93;1.23;;;6.90;96.50;;;7.86;68.86;96390.53;5029229;28;20041;-61
2023/12/22 02:51:41;;;;;;;2.27;0.97;;;6.90;96.70;;;7.72;68.61;96384.16;5030449;28;20049;-61
2023/12/22 02:54:09;;;;;;;6.60;1.90;;;7.00;94.10;;;7.74;68.98;96391.94;5030133;28;20057;-60
2023/12/22 02:56:37;;;;;;;4.17;1.20;;;6.90;94.20;;;7.67;68.67;96371.41;5029682;28;20421;-60
2023/12/22 02:59:05;;;;;;;5.90;1.30;;;6.90;94.30;;;7.68;68.57;96378.38;5030876;28;20045;-61
2023/12/22 03:01:33;;;;;;;2.90;0.90;;;6.80;94.00;;;7.59;69.06;96384.69;5030791;28;20056;-60
2023/12/22 03:04:01;;;;;;;1.43;0.63;;;6.80;94.70;;;7.60;68.93;96367.81;5030759;28;20056;-61
2023/12/22 03:06:29;;;;;;;1.93;1.17;;;6.90;94.20;;;7.68;69.16;96362.47;5029166;28;20050;-61
2023/12/22 03:08:57;;;;;;;7.60;2.53;;;6.90;95.20;;;7.76;69.09;96374.84;5030057;28;20512;-60
2023/12/22 03:11:24;;;;;;;4.40;1.70;;;7.00;94.70;;;7.74;69.04;96374.19;5030329;28;20046;-60
2023/12/22 03:13:52;;;;;;;5.10;1.63;;;7.00;96.50;;;7.82;68.78;96384.75;5030424;28;20053;-60
2023/12/22 03:16:20;;;;;;;3.67;1.20;;;7.00;94.90;;;7.65;68.75;96386.66;5030273;28;20049;-60
2023/12/22 03:18:48;;;;;;;5.37;1.40;;;7.00;93.20;;;7.71;68.46;96387.78;5030051;28;20543;-60
2023/12/22 03:21:18;;;;;;;2.70;1.47;;;7.00;92.60;;;7.65;68.57;96380.53;5030417;28;20041;-60
2023/12/22 03:23:46;;;;;;;3.33;1.70;;;6.90;92.90;;;7.73;68.63;96361.94;5030382;28;20413;-61
2023/12/22 03:26:14;;;;;;;3.27;1.30;;;7.00;93.30;;;7.73;68.02;96377.84;5030338;28;20420;-60
2023/12/22 03:28:42;;;;;;;3.10;1.43;;;7.00;92.20;;;7.74;67.90;96395.41;5029930;28;20049;-60
2023/12/22 03:31:10;;;;;;;3.13;0.90;;;7.00;91.50;;;7.85;67.51;96405.59;5030186;28;20030;-61
2023/12/22 03:33:38;;;;;;;3.13;0.87;;;7.10;91.90;;;7.80;66.87;96389.41;5030346;28;20049;-61
2023/12/22 03:36:06;;;;;;;4.37;1.00;;;7.10;89.30;;;7.81;66.52;96400.81;5021968;28;20045;-60
2023/12/22 03:38:34;;;;;;;3.27;1.43;;;7.20;88.20;;;7.69;66.39;96413.63;5030059;28;20065;-61
2023/12/22 03:41:01;;;;;;;3.37;1.20;;;7.00;88.50;;;7.80;67.19;96413.25;5030284;28;20045;-61
2023/12/22 03:43:31;;;;;;;4.33;1.20;;;7.10;91.00;;;7.64;66.36;96414.16;5029809;28;20042;-61
2023/12/22 03:45:59;;;;;;;3.33;1.03;;;7.00;88.20;;;7.65;66.91;96394.59;5030192;28;20045;-61
2023/12/22 03:48:26;;;;;;;4.27;1.90;;;7.00;90.00;;;7.59;66.59;96407.72;5030025;28;20053;-61
2023/12/22 03:50:54;;;;;;;3.40;1.30;;;7.00;88.40;;;7.66;67.10;96429.88;5030061;28;20405;-61
2023/12/22 03:53:22;;;;;;;4.03;1.27;;;7.10;91.00;;;7.64;67.84;96424.75;5026398;28;20052;-61
2023/12/22 03:55:50;;;;;;;4.23;1.50;;;7.00;93.90;;;7.43;69.46;96422.69;5028640;28;20042;-61
2023/12/22 03:58:18;;;;;;;3.20;1.13;;;6.70;98.70;;;7.29;70.80;96410.16;5029844;28;20412;-60
2023/12/22 04:00:46;;;;;;;3.00;1.20;;;6.50;99.90;;;7.20;71.30;96406.72;5030334;28;20089;-61
2023/12/22 04:03:14;;;;;;;4.60;1.50;;;6.40;99.90;;;7.22;71.00;96415.31;5033603;28;20037;-61
2023/12/22 04:05:42;;;;;;;3.97;1.20;;;6.30;99.90;;;7.06;72.91;96418.81;5032500;28;20048;-60
2023/12/22 04:08:10;;;;;;;5.50;1.60;;;6.30;99.90;;;7.14;72.65;96393.34;5025641;28;20041;-61
2023/12/22 04:10:37;;;;;;;6.80;1.33;;;6.30;99.90;;;7.24;71.83;96405.38;5032964;28;20037;-61
2023/12/22 04:13:05;;;;;;;3.10;2.23;;;6.40;99.90;;;7.19;72.47;96388.34;5033317;28;20045;-61
2023/12/22 04:15:33;;;;;;;5.27;2.10;;;6.40;99.90;;;7.02;72.55;96406.09;5033928;28;20037;-61
2023/12/22 04:18:01;;;;;;;6.13;2.13;;;6.30;99.90;;;7.16;72.55;96412.53;5033084;28;20061;-61
2023/12/22 04:20:29;;;;;;;10.80;1.73;;;6.40;99.90;;;7.11;72.23;96415.66;5033154;28;20045;-61
2023/12/22 04:22:57;;;;;;;3.40;1.30;;;6.40;99.90;;;7.05;72.68;96414.50;5031589;28;20045;-61
2023/12/22 04:25:25;;;;;;;7.30;2.43;;;6.40;99.90;;;7.20;72.12;96404.06;5015427;28;20061;-61
2023/12/22 04:27:53;;;;;;;5.87;1.50;;;6.60;99.90;;;7.10;72.06;96393.66;5031884;28;20477;-61
2023/12/22 04:30:21;;;;;;;3.13;1.60;;;6.50;99.90;;;7.04;71.87;96417.34;5032999;28;20463;-61
2023/12/22 04:32:49;;;;;;;2.23;1.10;;;6.50;99.90;;;7.11;71.58;96439.47;5031682;28;20519;-61
2023/12/22 04:35:17;;;;;;;6.83;2.37;;;6.60;98.30;;;7.17;71.78;96437.97;5033090;28;20034;-61
2023/12/22 04:37:45;;;;;;;4.73;2.00;;;6.60;99.90;;;7.29;71.48;96432.16;5032618;28;20045;-61
2023/12/22 04:40:13;;;;;;;6.17;1.70;;;6.60;98.60;;;7.35;70.82;96429.81;5024016;28;20394;-61
2023/12/22 04:42:41;;;;;;;6.07;2.00;;;6.60;98.60;;;7.19;70.57;96425.41;5032671;28;20049;-62
2023/12/22 04:45:10;;;;;;;3.27;1.20;;;6.60;96.80;;;7.34;70.37;96425.53;5032800;28;20041;-62
2023/12/22 04:47:38;;;;;;;3.30;1.63;;;6.70;97.30;;;7.12;70.46;96438.50;5031183;28;20049;-62
2023/12/22 04:50:06;;;;;;;9.00;2.90;;;6.70;95.40;;;7.19;70.86;96420.09;5032687;28;20049;-62
2023/12/22 04:52:34;;;;;;;2.23;1.50;;;6.70;97.10;;;6.96;70.63;96420.00;5032668;28;20042;-63
2023/12/22 04:55:02;;;;;;;5.80;1.53;;;6.50;95.50;;;7.21;70.81;96426.06;5032748;28;20037;-62
2023/12/22 04:57:30;;;;;;;4.90;1.40;;;6.70;97.10;;;7.31;70.66;96463.78;5032300;28;20053;-62
2023/12/22 04:59:58;;;;;;;8.50;2.10;;;6.70;97.50;;;7.32;69.74;96454.00;5013822;28;20045;-62
2023/12/22 05:02:25;;;;;;;4.20;1.20;;;6.70;96.20;;;7.32;70.07;96430.16;5032505;28;20041;-62
2023/12/22 05:04:53;;;;;;;7.10;1.87;;;6.70;96.00;;;7.36;70.13;96442.88;5032596;28;20041;-62
2023/12/22 05:07:21;;;;;;;5.57;2.17;;;6.70;96.80;;;7.32;70.16;96438.13;5031803;28;20045;-61
2023/12/22 05:09:49;;;;;;;4.27;1.87;;;6.80;95.50;;;7.37;69.91;96441.91;5032662;28;20513;-62
2023/12/22 05:12:17;;;;;;;3.57;1.37;;;6.80;95.30;;;7.20;70.09;96486.13;5032292;28;20038;-62
2023/12/22 05:14:45;;;;;;;8.30;2.20;;;6.70;94.30;;;7.28;70.02;96446.38;5032285;28;20046;-61
2023/12/22 05:17:12;;;;;;;3.63;1.40;;;6.70;95.20;;;7.25;69.77;96483.81;5032042;28;20523;-61
2023/12/22 05:19:40;;;;;;;9.30;1.93;;;6.70;94.80;;;7.34;69.33;96467.88;5032269;28;20049;-62
2023/12/22 05:22:08;;;;;;;8.77;2.37;;;6.80;94.60;;;7.50;69.80;96459.88;5030301;28;20065;-62
2023/12/22 05:24:38;;;;;;;4.87;2.27;;;6.80;96.30;;;7.57;69.44;96535.03;5031168;28;20520;-63
2023/12/22 05:27:06;;;;;;;7.63;1.97;;;6.80;94.80;;;7.55;69.46;96460.22;5031879;28;20052;-62
2023/12/22 05:29:34;;;;;;;6.70;2.40;;;6.90;95.50;;;7.43;69.42;96462.41;5031990;28;20037;-62
2023/12/22 05:32:02;;;;;;;6.07;2.97;;;6.80;96.30;;;7.57;69.55;96465.34;5031875;28;20389;-62
2023/12/22 05:34:31;;;;;;;9.50;2.33;;;6.80;96.40;;;7.61;69.75;96469.28;5031720;28;20117;-63
2023/12/22 05:36:59;;;;;;;2.27;1.33;;;6.80;97.10;;;7.46;69.24;96472.66;5031613;28;20413;-62
2023/12/22 05:39:26;;;;;;;8.43;2.07;;;6.70;95.80;;;7.44;69.86;96455.28;5031704;28;20045;-63
2023/12/22 05:41:54;;;;;;;6.27;2.23;;;6.80;96.10;;;7.70;69.34;96473.56;5031603;28;20041;-62
2023/12/22 05:44:24;;;;;;;6.13;2.10;;;6.80;96.90;;;7.59;68.36;96466.00;5031869;28;20068;-62
2023/12/22 05:46:51;;;;;;;5.00;1.97;;;6.80;93.30;;;7.53;68.32;96458.75;5031717;28;20068;-62
2023/12/22 05:49:20;;;;;;;8.07;2.67;;;6.90;92.60;;;7.61;68.18;96467.47;5023716;28;20038;-63
2023/12/22 05:51:47;;;;;;;4.20;1.93;;;6.90;92.70;;;7.60;67.67;96508.22;5031833;28;20037;-62
2023/12/22 05:54:16;;;;;;;7.03;2.17;;;7.00;90.50;;;7.66;66.88;96488.16;5030457;28;20420;-62
2023/12/22 05:56:45;;;;;;;4.37;2.20;;;7.10;89.10;;;7.48;67.16;96488.34;5031714;28;20037;-62
2023/12/22 05:59:13;;;;;;;7.90;2.20;;;7.00;88.40;;;7.52;66.80;96479.06;5029195;28;20072;-63
2023/12/22 06:01:41;;;;;;;5.80;1.83;;;7.00;87.80;;;7.51;66.50;96466.03;5031301;28;20045;-63
2023/12/22 06:04:09;;;;;;;8.60;2.67;;;7.10;87.60;;;7.37;66.69;96486.09;5031316;28;20053;-62
2023/12/22 06:06:38;;;;;;;7.47;2.60;;;7.10;87.40;;;7.40;67.18;96486.56;5030293;28;20050;-62
2023/12/22 06:09:06;;;;;;;5.97;2.20;;;7.10;87.70;;;7.37;66.64;96509.94;5029826;28;20053;-62
2023/12/22 06:11:34;;;;;;;6.10;1.60;;;7.00;86.90;;;7.55;66.34;96499.94;5031532;28;20037;-62
2023/12/22 06:14:02;;;;;;;7.77;2.00;;;7.20;86.00;;;7.57;66.07;96491.81;5029669;28;20057;-62
2023/12/22 06:16:30;;;;;;;5.43;2.10;;;7.20;86.10;;;7.67;65.46;96500.41;5031523;28;20121;-63
2023/12/22 06:19:04;;;;;;;3.63;2.00;;;7.30;84.70;;;7.58;65.31;96501.41;5034375;28;20056;-59
2023/12/22 06:21:47;;;;;;;6.13;1.80;;;7.20;83.50;;;7.85;65.32;96508.09;5042669;28;20144;-59
2023/12/22 06:24:16;;;;;;;4.53;2.00;;;7.20;85.00;;;7.95;64.98;96524.66;5030886;28;20048;-58
2023/12/22 06:26:44;;;;;;;5.20;2.03;;;7.30;85.10;;;7.93;65.19;96529.28;5031400;28;20068;-58
2023/12/22 06:29:11;;;;;;;5.53;1.50;;;7.20;86.50;;;7.82;65.36;96519.88;5030663;28;20049;-59
2023/12/22 06:31:40;;;;;;;5.60;2.30;;;7.20;86.30;;;7.66;65.48;96528.72;5029869;28;20057;-58
2023/12/22 06:34:08;;;;;;;3.80;2.13;;;7.10;86.50;;;7.70;65.62;96537.16;5030954;28;20041;-58
2023/12/22 06:36:35;;;;;;;6.10;1.63;;;7.10;86.20;;;7.75;64.90;96532.16;5030964;28;20033;-58
2023/12/22 06:39:04;;;;;;;5.83;1.80;;;7.20;86.00;;;7.80;65.15;96544.91;5030705;28;20425;-58
2023/12/22 06:41:32;;;;;;;5.80;2.10;;;7.20;86.00;;;7.80;64.96;96542.25;5031038;28;20045;-57
2023/12/22 06:44:01;;;;;;;7.97;1.97;;;7.20;84.20;;;7.65;64.83;96550.06;5030993;28;20089;-59
2023/12/22 06:46:30;;;;;;;9.33;2.23;;;7.20;84.00;;;7.75;64.86;96544.56;5030796;28;20037;-59
2023/12/22 06:48:59;;;;;;;9.73;2.93;;;7.30;84.60;;;7.92;64.57;96562.06;5030357;28;20042;-59
2023/12/22 06:51:34;;;;;;;5.77;2.27;;;7.30;85.30;;;7.93;64.61;96557.59;5031395;28;20045;-59
2023/12/22 06:54:04;;;;;;;10.47;2.87;;;7.30;84.90;;;7.77;64.42;96551.34;5027054;28;20497;-59
2023/12/22 06:56:35;;;;;;;7.00;2.40;;;7.20;84.00;;;7.73;64.82;96543.91;5030667;28;20489;-58
2023/12/22 06:59:03;;;;;;;5.13;1.80;;;7.20;84.80;;;7.83;64.57;96566.59;5029251;28;20516;-58
2023/12/22 07:01:34;;;;;;;5.57;2.07;;;7.20;85.50;;;7.90;64.99;96574.66;5030856;28;20048;-58
2023/12/22 07:04:04;;;;;;;10.33;2.80;;;7.20;86.50;;;7.95;65.00;96580.31;5030084;28;20049;-57
2023/12/22 07:06:34;;;;;;;5.40;2.10;;;7.20;87.20;;;7.76;65.71;96581.50;5029483;28;20050;-56
2023/12/22 07:09:14;;;;;;;13.10;2.90;;;7.20;88.20;;;7.84;65.75;96585.97;5030288;28;20042;-58
2023/12/22 07:11:49;;;;;;;7.83;3.27;;;7.20;87.90;;;7.96;65.59;96583.78;5030832;28;20523;-58
2023/12/22 07:14:17;;;;;;;6.40;1.90;;;7.30;88.20;;;8.00;65.54;96580.59;5030496;28;20094;-58
2023/12/22 07:16:45;;;;;;;7.10;1.73;;;7.20;89.10;;;7.98;65.75;96598.50;5031077;28;20069;-58
2023/12/22 07:19:13;;;;;;;7.97;2.23;;;7.20;88.70;;;7.99;66.03;96615.25;5029961;28;20431;-58
2023/12/22 07:21:42;;;;;;;8.30;2.30;;;7.20;89.20;;;8.12;65.67;96580.22;5029653;28;20049;-58
2023/12/22 07:24:13;;;;;;;7.60;2.57;;;7.40;88.90;;;8.04;66.03;96592.50;5029941;28;20427;-59
2023/12/22 07:26:44;;;;;;;10.27;2.47;;;7.30;90.00;;;8.06;66.27;96624.16;5029138;28;20053;-58
2023/12/22 07:29:12;;;;;;;5.73;2.23;;;7.20;90.20;;;8.07;65.88;96633.78;5029815;28;20527;-57
2023/12/22 07:31:41;;;;;;;8.90;2.60;;;7.20;89.40;;;8.13;65.94;96603.09;5030361;28;20038;-57
2023/12/22 07:34:08;;;;;;;10.00;1.70;;;7.20;90.40;;;8.22;65.40;96612.66;5030312;28;20049;-58
2023/12/22 07:36:36;;;;;;;6.63;2.00;;;7.30;89.30;;;8.23;65.35;96604.53;5033652;28;20034;-59
2023/12/22 07:39:15;;;;;;;8.07;2.13;;;7.30;89.20;;;8.00;65.83;96614.22;5034003;28;20049;-59
2023/12/22 07:41:44;;;;;;;11.20;2.27;;;7.20;90.30;;;8.13;65.77;96606.56;5034136;28;20068;-60
2023/12/22 07:44:12;;;;;;;6.87;2.00;;;7.20;90.70;;;8.16;65.72;96619.50;5032681;28;20406;-59
2023/12/22 07:46:41;;;;;;;8.80;2.27;;;7.30;90.60;;;8.21;65.77;96624.28;5034275;28;20092;-56
2023/12/22 07:49:10;;;;;;;8.13;2.13;;;7.40;89.60;;;8.28;65.63;96634.03;5033461;28;20042;-59
2023/12/22 07:51:38;;;;;;;6.80;1.53;;;7.40;90.60;;;8.32;65.79;96641.63;5034126;28;20042;-58
2023/12/22 07:54:08;;;;;;;6.93;1.97;;;7.40;91.30;;;8.21;66.60;96629.59;5033306;28;20504;-58
2023/12/22 07:56:36;;;;;;;5.80;1.73;;;7.20;93.10;;;8.20;66.89;96634.06;5033723;28;20048;-59
2023/12/22 07:59:04;;;;;;;8.27;1.83;;;7.20;94.50;;;8.16;67.59;96634.56;5031401;28;20067;-58
2023/12/22 08:01:52;;;;;;;7.13;2.27;;;7.20;95.40;;;7.89;68.73;96636.63;5027594;28;20554;-55
2023/12/22 08:04:20;;;;;;;4.17;1.63;;;7.00;98.40;;;7.76;68.95;96660.16;5032376;28;20097;-58
2023/12/22 08:06:48;;;;;;;9.53;2.20;;;6.90;99.20;;;7.62;70.77;96653.72;5032465;28;20042;-55
2023/12/22 08:09:16;;;;;;;5.50;2.10;;;6.80;99.90;;;7.59;71.25;96659.34;5031927;28;20045;-57
2023/12/22 08:11:46;;;;;;;7.57;2.97;;;6.70;99.90;;;7.57;71.03;96654.22;5031949;28;20033;-56
2023/12/22 08:14:15;;;;;;;6.50;2.47;;;6.70;99.90;;;7.52;71.56;96645.94;5033366;28;20049;-57
2023/12/22 08:16:44;;;;;;;9.97;2.57;;;6.70;99.90;;;7.54;71.54;96659.00;5033729;28;20042;-56
2023/12/22 08:19:12;;;;;;;10.03;3.87;;;6.70;99.90;;;7.49;71.88;96664.81;5033140;28;20049;-58
2023/12/22 08:21:42;;;;;;;10.40;3.03;;;6.60;99.90;;;7.42;72.33;96675.22;5033261;28;20049;-58
2023/12/22 08:24:13;;;;;;;12.40;4.03;;;6.60;99.90;;;7.28;73.74;96655.53;5032291;28;20405;-59
2023/12/22 08:26:50;;;;;;;8.87;2.83;;;6.50;99.90;;;7.10;74.29;96655.69;5033507;28;20056;-59
2023/12/22 08:29:19;;;;;;;9.10;3.57;;;6.40;99.90;;;7.07;74.62;96637.47;5015486;28;20045;-59
2023/12/22 08:31:47;;;;;;;8.30;2.90;;;6.40;99.90;;;7.07;75.26;96650.72;5033134;28;20037;-60
2023/12/22 08:34:15;;;;;;;15.70;3.23;;;6.40;99.90;;;6.97;75.47;96646.56;5033150;28;20044;-58
2023/12/22 08:36:43;;;;;;;14.90;3.60;;;6.40;99.90;;;7.03;75.21;96636.16;5033341;28;20041;-58
2023/12/22 08:39:12;;;;;;;14.83;4.13;;;6.40;99.90;;;6.94;75.50;96626.56;5032869;28;20045;-59
2023/12/22 08:41:41;;;;;;;11.17;3.27;;;6.40;99.90;;;6.92;75.77;96649.72;5031809;28;20049;-56
2023/12/22 08:44:09;;;;;;;7.73;2.53;;;6.40;99.90;;;6.98;75.15;96621.75;5031493;28;20060;-58
2023/12/22 08:46:38;;;;;;;12.27;3.17;;;6.50;99.90;;;6.99;76.33;96600.44;5032483;28;20425;-58
2023/12/22 08:49:07;;;;;;;10.37;2.60;;;6.50;99.90;;;7.12;74.83;96630.88;5032644;28;20033;-58
2023/12/22 08:51:35;;;;;;;10.87;2.50;;;6.50;99.90;;;7.15;74.92;96612.84;5032888;28;20029;-58
2023/12/22 08:54:06;;;;;;;8.07;2.00;;;6.60;99.90;;;7.09;74.34;96611.69;5032775;28;20044;-58
2023/12/22 08:56:35;;;;;;;9.97;3.10;;;6.70;99.90;;;7.19;74.27;96608.03;5031211;28;20089;-57
2023/12/22 08:59:03;;;;;;;8.63;2.23;;;6.70;99.90;;;7.13;73.71;96614.81;5031756;28;20050;-57
2023/12/22 09:01:31;;;;;;;7.70;3.47;;;6.70;99.90;;;7.19;73.62;96622.13;5031163;28;20113;-57
2023/12/22 09:03:59;;;;;;;13.13;2.90;;;6.70;99.90;;;7.23;73.57;96635.84;5032660;28;20058;-57
2023/12/22 09:06:27;;;;;;;13.00;3.73;;;6.70;99.90;;;7.27;72.72;96629.25;5032509;28;20045;-56
2023/12/22 09:08:55;;;;;;;12.17;2.37;;;6.80;99.70;;;7.37;72.90;96621.13;5032079;28;20037;-57
2023/12/22 09:11:23;;;;;;;6.77;2.87;;;6.90;99.90;;;7.24;72.78;96630.38;5032407;28;20057;-57
2023/12/22 09:13:51;;;;;;;9.43;3.13;;;6.90;98.80;;;7.21;72.14;96649.25;5032299;28;20412;-57
2023/12/22 09:16:24;;;;;;;8.30;2.03;;;7.00;96.70;;;7.45;72.21;96644.97;5031001;28;20052;-57
2023/12/22 09:18:53;;;;;;;10.93;2.67;;;7.10;98.40;;;7.52;71.38;96664.47;5032024;28;20070;-56
2023/12/22 09:21:21;;;;;;;13.33;2.70;;;7.10;96.00;;;7.60;71.27;96653.03;5032804;28;20061;-57
2023/12/22 09:23:49;;;;;;;10.77;3.73;;;7.20;96.20;;;7.59;70.78;96662.00;5032309;28;20033;-55
2023/12/22 09:26:17;;;;;;;7.70;2.70;;;7.10;95.10;;;7.73;69.87;96657.84;5031956;28;20052;-57
2023/12/22 09:28:46;;;;;;;10.63;3.87;;;7.20;93.50;;;7.83;69.30;96656.69;5031954;28;20052;-57
2023/12/22 09:31:14;;;;;;;8.33;3.17;;;7.30;93.20;;;7.83;69.11;96687.63;5031626;28;20421;-57
2023/12/22 09:33:42;;;;;;;12.50;3.93;;;7.20;93.00;;;7.71;69.14;96657.19;5031138;28;20504;-57
2023/12/22 09:36:11;;;;;;;6.43;2.37;;;7.20;93.20;;;7.93;68.36;96653.84;5031917;28;20045;-55
2023/12/22 09:38:39;;;;;;;12.87;2.70;;;7.30;91.50;;;7.91;68.76;96660.28;5030611;28;20041;-57
2023/12/22 09:41:07;;;;;;;14.37;2.70;;;7.30;92.50;;;7.87;67.86;96676.56;5031996;28;20068;-56
2023/12/22 09:43:38;;;;;;;12.23;2.97;;;7.20;90.80;;;7.86;68.01;96685.47;5031834;28;20060;-56
2023/12/22 09:46:09;;;;;;;9.07;4.00;;;7.30;92.10;;;7.90;67.96;96693.94;5031704;28;20045;-55
2023/12/22 09:48:39;;;;;;;11.97;3.10;;;7.30;91.10;;;7.92;68.11;96680.50;5030197;28;20037;-56
2023/12/22 09:51:08;;;;;;;9.17;2.80;;;7.30;91.60;;;7.99;67.85;96668.25;5031985;28;20416;-55
2023/12/22 09:53:38;;;;;;;12.47;3.23;;;7.30;91.60;;;7.98;67.60;96667.41;5013071;28;20092;-57
2023/12/22 09:56:07;;;;;;;13.30;2.33;;;7.40;91.30;;;7.99;67.65;96671.72;5029183;28;20041;-55
2023/12/22 09:58:36;;;;;;;13.13;3.87;;;7.30;90.40;;;8.05;67.32;96679.00;5029141;28;20116;-55
2023/12/22 10:01:05;;;;;;;11.30;3.03;;;7.30;89.70;;;8.13;66.78;96672.03;5030472;28;20054;-55
2023/12/22 10:03:34;;;;;;;7.90;3.17;;;7.40;88.60;;;8.08;66.68;96680.47;5031343;28;20559;-56
2023/12/22 10:06:03;;;;;;;12.17;2.77;;;7.50;89.20;;;8.07;66.85;96668.22;5030614;28;20079;-56
2023/12/22 10:08:32;;;;;;;13.53;2.60;;;7.50;89.40;;;8.16;66.69;96695.53;5029864;28;20508;-56
2023/12/22 10:11:01;;;;;;;7.87;2.73;;;7.40;89.00;;;8.20;66.35;96671.19;5030185;28;20505;-57
2023/12/22 10:13:29;;;;;;;13.17;2.87;;;7.40;88.40;;;8.26;66.10;96661.72;5013561;28;20049;-56
2023/12/22 10:15:58;;;;;;;6.93;3.13;;;7.50;88.40;;;8.37;65.24;96661.31;5031379;28;20485;-55
2023/12/22 10:18:26;;;;;;;12.10;3.30;;;7.50;86.70;;;8.33;65.26;96653.91;5029901;28;20070;-57
2023/12/22 10:20:55;;;;;;;11.73;3.20;;;7.60;86.50;;;8.47;65.13;96677.06;5030117;28;20042;-57
2023/12/22 10:23:22;;;;;;;19.17;3.90;;;7.70;86.90;;;8.39;64.58;96640.78;5030756;28;20050;-56
2023/12/22 10:25:51;;;;;;;13.20;3.07;;;7.70;86.30;;;8.37;65.13;96634.81;5030974;28;20041;-57
2023/12/22 10:28:24;;;;;;;16.93;3.40;;;7.60;87.00;;;8.46;64.85;96668.28;5030794;28;20493;-57
2023/12/22 10:30:55;;;;;;;14.95;3.05;;;7.70;87.10;;;8.43;65.43;96622.72;5023252;28;20505;-54
2023/12/22 10:33:23;;;;;;;7.37;2.77;;;7.70;88.00;;;8.28;65.27;96625.25;5030781;28;20049;-51
2023/12/22 10:35:54;;;;;;;11.33;3.20;;;7.60;87.00;;;8.40;65.70;96631.00;5030763;28;20053;-53
2023/12/22 10:38:22;;;;;;;7.73;2.27;;;7.70;88.90;;;8.12;66.55;96625.28;5030696;28;20524;-53